Data for 03/19/2009

Time Sea-Level Adjusted Pressure Absolute Pressure Temperature Relative Humidity Dew Point   
(mb) (inHg) (mb) (inHg) (C) (F) (%) (C) (F)
00:05 1023 30.21 852 25.16 1.8 35.3 62 -4.6 23.7
00:10 1023 30.21 852 25.16 1.7 35.1 65 -4.2 24.5
00:15 1023 30.21 852 25.16 1.8 35.2 65 -4 24.8
00:20 1023 30.21 852 25.16 2 35.5 65 -3.9 25
00:25 1023 30.21 852 25.16 2 35.5 65 -4 24.8
00:30 1023 30.21 852 25.16 2 35.6 65 -4 24.9
00:35 1023 30.21 852 25.16 1.9 35.5 64 -4.1 24.6
00:40 1023 30.21 852 25.16 1.8 35.3 64 -4.2 24.4
00:45 1023 30.21 852 25.16 1.7 35.1 65 -4.1 24.6
00:50 1023 30.21 852 25.16 1.7 35 65 -4.2 24.5
00:55 1023 30.21 852 25.16 1.8 35.3 63 -4.4 24
01:00 1023 30.21 852 25.16 2.2 36 63 -4.2 24.4
01:05 1023 30.21 852 25.16 2.3 36.1 63 -4 24.8
01:10 1023 30.21 852 25.16 2.3 36.1 64 -3.9 25.1
01:15 1023 30.21 852 25.16 2.1 35.8 65 -3.8 25.1
01:20 1023 30.21 852 25.16 2 35.6 65 -3.9 25
01:25 1023 30.21 852 25.16 1.9 35.5 65 -3.9 24.9
01:30 1023 30.21 852 25.16 1.9 35.5 65 -3.9 25
01:35 1023 30.21 852 25.16 1.8 35.2 66 -4 24.9
01:40 1023 30.21 852 25.16 1.7 35.1 65 -4.1 24.5
01:45 1023 30.21 852 25.16 1.9 35.4 65 -3.9 24.9
01:50 1023 30.21 852 25.16 1.8 35.2 65 -4 24.7
01:55 1023 30.21 852 25.16 1.8 35.3 66 -3.9 24.9
01:55 1023 30.21 852 25.16 1.7 35.1 66 -4 24.8
02:00 1023 30.21 852 25.16 1.7 35 66 -3.9 24.9
02:05 1023 30.21 852 25.16 1.6 34.8 67 -3.9 25
02:10 1023 30.21 852 25.16 1.6 34.9 66 -4 24.8
02:15 1022 30.18 852 25.16 1.6 34.9 66 -4 24.8
02:20 1022 30.18 852 25.16 1.7 35.1 67 -3.9 25
02:25 1022 30.18 852 25.16 1.7 35.1 66 -3.9 25.1
02:30 1022 30.18 852 25.16 1.7 35.1 66 -3.9 25
02:35 1022 30.18 851 25.13 1.5 34.7 69 -3.7 25.4
02:40 1022 30.18 851 25.13 1.4 34.5 69 -3.7 25.4
02:45 1022 30.18 851 25.13 1.1 34 71 -3.6 25.5
02:50 1022 30.18 851 25.13 0.7 33.3 72 -3.8 25.2
02:55 1022 30.18 851 25.13 0.9 33.6 71 -3.7 25.3
03:00 1022 30.18 851 25.13 0.7 33.2 73 -3.6 25.5
03:05 1022 30.18 851 25.13 0.8 33.4 71 -4 24.9
03:10 1022 30.18 851 25.13 0.9 33.6 71 -3.8 25.1
03:15 1022 30.18 851 25.13 0.8 33.5 71 -3.8 25.1
03:20 1022 30.18 851 25.13 0.5 33 72 -4 24.9
03:25 1022 30.18 851 25.13 0.5 32.9 72 -4.1 24.7
03:30 1022 30.18 851 25.13 0.4 32.8 72 -4 24.8
03:35 1022 30.18 851 25.13 0.2 32.4 73 -4 24.7
03:40 1022 30.18 851 25.13 0 32 74 -4.1 24.6
03:45 1022 30.18 851 25.13 -0.1 31.9 74 -4.2 24.4
03:50 1022 30.18 851 25.13 -0 32 74 -4.1 24.6
03:55 1022 30.18 851 25.13 0 32.1 74 -4 24.7
04:00 1021 30.15 851 25.13 0.1 32.1 73 -4.1 24.6
04:05 1021 30.15 851 25.13 -0 32 73 -4.3 24.2
04:10 1021 30.15 851 25.13 0 32 73 -4.2 24.5
04:15 1021 30.15 851 25.13 0.1 32.2 71 -4.5 24
04:20 1021 30.15 850 25.1 0.2 32.3 71 -4.4 24.1
04:25 1021 30.15 850 25.1 0 32 72 -4.5 24
04:30 1021 30.15 850 25.1 -0.4 31.3 74 -4.6 23.8
04:35 1021 30.15 850 25.1 -0.6 31 73 -4.8 23.3
04:40 1021 30.15 850 25.1 -0.7 30.7 73 -5 23.1
04:45 1021 30.15 850 25.1 -0.2 31.6 69 -5.3 22.4
04:50 1021 30.15 850 25.1 0.2 32.3 70 -4.7 23.6
04:55 1021 30.15 850 25.1 0.1 32.2 69 -4.9 23.3
05:00 1021 30.15 850 25.1 0.3 32.5 68 -4.8 23.3
05:05 1021 30.15 850 25.1 0.3 32.5 69 -4.8 23.4
05:10 1021 30.15 850 25.1 0.5 33 67 -4.8 23.3
05:15 1021 30.15 850 25.1 0.6 33.1 68 -4.5 23.8
05:20 1021 30.15 850 25.1 0.4 32.6 68 -4.8 23.3
05:25 1021 30.15 850 25.1 0.3 32.6 69 -4.8 23.3
05:30 1021 30.15 850 25.1 0 32 70 -4.8 23.3
05:35 1021 30.15 850 25.1 -0.4 31.3 71 -4.9 23.1
05:40 1021 30.15 850 25.1 -0.4 31.4 71 -5 23
05:45 1021 30.15 850 25.1 -0.4 31.2 71 -5.1 22.8
05:50 1021 30.15 850 25.1 -0.3 31.4 70 -5.2 22.7
05:55 1021 30.15 850 25.1 -0.4 31.3 70 -5.1 22.8
06:00 1021 30.15 850 25.1 -0.2 31.6 70 -5.1 22.7
06:05 1021 30.15 850 25.1 0.2 32.4 67 -5.2 22.6
06:10 1021 30.15 850 25.1 0.5 33 65 -5.2 22.6
06:15 1021 30.15 850 25.1 0.6 33 66 -5.1 22.9
06:20 1021 30.15 850 25.1 0.2 32.4 69 -4.9 23.2
06:25 1021 30.15 850 25.1 -0.3 31.5 71 -5 23.1
06:30 1021 30.15 850 25.1 -0.2 31.7 69 -5.1 22.8
06:35 1021 30.15 850 25.1 -0.2 31.6 70 -5 23
06:40 1021 30.15 850 25.1 -0.6 30.8 72 -5.1 22.8
06:45 1021 30.15 850 25.1 -0.9 30.4 72 -5.3 22.5
06:50 1021 30.15 850 25.1 -0.9 30.4 72 -5.3 22.5
06:55 1021 30.15 850 25.1 -1.1 30 74 -5.1 22.8
07:00 1021 30.15 850 25.1 -1.5 29.2 75 -5.4 22.3
07:05 1021 30.15 850 25.1 -1.4 29.5 75 -5.4 22.4
07:10 1021 30.15 850 25.1 -1.3 29.7 74 -5.3 22.5
07:15 1021 30.15 850 25.1 -1.1 30.1 73 -5.3 22.5
07:20 1021 30.15 850 25.1 -1 30.3 73 -5.2 22.6
07:25 1021 30.15 850 25.1 -1.3 29.6 74 -5.3 22.5
07:30 1021 30.15 850 25.1 -1.3 29.7 72 -5.6 21.8
07:35 1021 30.15 850 25.1 -0.7 30.7 72 -5.2 22.6
07:40 1021 30.15 850 25.1 -0.9 30.4 72 -5.3 22.5
07:45 1021 30.15 850 25.1 -1.4 29.6 74 -5.4 22.3
07:50 1021 30.15 850 25.1 -1 30.1 72 -5.5 22
07:55 1021 30.15 850 25.1 -1.1 30.1 71 -5.6 21.9
08:00 1021 30.15 850 25.1 -0.8 30.5 70 -5.6 21.9
08:05 1021 30.15 850 25.1 -0.8 30.6 70 -5.5 22.1
08:10 1021 30.15 850 25.1 -0.6 31 69 -5.5 22.1
08:15 1021 30.15 850 25.1 -0.3 31.5 68 -5.4 22.2
08:20 1021 30.15 850 25.1 -0.1 31.9 67 -5.4 22.3
08:25 1021 30.15 850 25.1 0.2 32.3 66 -5.4 22.3
08:30 1021 30.15 850 25.1 0.4 32.7 66 -5.2 22.6
08:35 1021 30.15 850 25.1 0.4 32.6 66 -5.2 22.7
08:40 1021 30.15 850 25.1 0.3 32.6 66 -5.2 22.7
08:45 1021 30.15 850 25.1 0.2 32.3 67 -5.3 22.5
08:50 1021 30.15 850 25.1 0.5 32.8 65 -5.4 22.2
08:55 1021 30.15 850 25.1 0.7 33.2 64 -5.3 22.5
09:00 1021 30.15 850 25.1 1.2 34.2 60 -5.7 21.8
09:05 1021 30.15 850 25.1 2.6 36.7 55 -5.5 22.1
09:10 1021 30.15 850 25.1 3 37.4 56 -5 23
09:15 1021 30.15 850 25.1 2.9 37.2 56 -5 22.9
09:20 1021 30.15 850 25.1 2.9 37.2 57 -4.7 23.6
09:25 1021 30.15 850 25.1 2.7 36.9 58 -4.6 23.7
09:30 1021 30.15 850 25.1 3.5 38.3 55 -4.8 23.4
09:35 1021 30.15 850 25.1 4.3 39.7 53 -4.5 23.9
09:40 1021 30.15 850 25.1 4.5 40.1 52 -4.5 23.8
09:45 1021 30.15 850 25.1 4.9 40.9 50 -4.6 23.7
09:50 1021 30.15 850 25.1 5.3 41.5 50 -4.3 24.2
09:55 1021 30.15 850 25.1 4.9 40.8 53 -3.9 25
10:00 1021 30.15 850 25.1 4.8 40.6 52 -4.3 24.3
10:05 1021 30.15 850 25.1 4.6 40.2 53 -4.1 24.6
10:10 1021 30.15 850 25.1 5.3 41.5 47 -5 23
10:15 1021 30.15 850 25.1 5.8 42.4 48 -4.4 24.2
10:20 1021 30.15 850 25.1 5.8 42.4 47 -4.6 23.7
10:25 1021 30.15 850 25.1 6.4 43.5 46 -4.3 24.2
10:30 1021 30.15 850 25.1 6.7 44.1 46 -3.9 24.9
10:35 1021 30.15 850 25.1 6.6 43.9 46 -4.2 24.5
10:40 1021 30.15 850 25.1 6.5 43.7 46 -4.4 24.2
10:45 1021 30.15 850 25.1 6.1 43 46 -4.7 23.6
10:50 1020 30.12 850 25.1 6.2 43.2 44 -5.1 22.8
10:55 1020 30.12 850 25.1 7 44.6 43 -4.6 23.7
11:00 1020 30.12 850 25.1 7.1 44.9 42 -4.9 23.2
11:05 1020 30.12 850 25.1 6.6 43.9 43 -5.2 22.6
11:10 1020 30.12 850 25.1 6.7 44.1 41 -5.5 22.1
11:15 1020 30.12 849 25.07 7.7 45.8 41 -4.9 23.2
11:20 1020 30.12 849 25.07 8.7 47.7 37 -5 23
11:25 1020 30.12 849 25.07 9.5 49.1 34 -5.6 21.9
11:30 1020 30.12 849 25.07 10.1 50.2 31 -6.4 20.4
11:35 1020 30.12 849 25.07 9.8 49.6 32 -6 21.3
11:40 1020 30.12 849 25.07 10.3 50.6 30 -6.3 20.6
11:45 1020 30.12 849 25.07 9.8 49.7 36 -4.5 24
11:50 1020 30.12 849 25.07 9.9 49.9 37 -4.2 24.5
11:55 1020 30.12 849 25.07 10.4 50.7 32 -5.8 21.6
12:00 1020 30.12 849 25.07 10.1 50.2 32 -5.9 21.4
12:05 1020 30.12 849 25.07 10.1 50.2 33 -5.4 22.2
12:10 1020 30.12 849 25.07 10.8 51.5 32 -5.4 22.3
12:15 1020 30.12 849 25.07 11.1 52 32 -4.8 23.3
12:20 1020 30.12 849 25.07 11.6 52.9 30 -5.2 22.6
12:25 1020 30.12 849 25.07 11.9 53.4 31 -4.8 23.3
12:30 1020 30.12 849 25.07 11.2 52.2 32 -4.8 23.4
12:35 1020 30.12 849 25.07 11.3 52.4 31 -5 22.9
12:40 1020 30.12 849 25.07 11.6 52.8 32 -4.5 24
12:45 1020 30.12 849 25.07 11.9 53.5 31 -4.4 24
12:50 1019 30.09 849 25.07 11.8 53.3 33 -3.7 25.4
12:55 1019 30.09 849 25.07 10.8 51.4 37 -3.3 26.1
13:00 1019 30.09 849 25.07 10.1 50.2 38 -3.5 25.7
13:05 1019 30.09 848 25.04 11.1 51.9 35 -3.9 25
13:10 1019 30.09 848 25.04 11.2 52.2 33 -4.3 24.2
13:15 1019 30.09 848 25.04 11.6 52.9 32 -4.6 23.8
13:20 1019 30.09 848 25.04 11.9 53.5 29 -5.6 21.9
13:25 1019 30.09 848 25.04 12.4 54.3 28 -5.4 22.2
13:30 1019 30.09 848 25.04 12.7 54.8 27 -5.7 21.8
13:35 1019 30.09 848 25.04 13 55.4 29 -4.6 23.8
13:40 1019 30.09 848 25.04 13 55.4 27 -5.3 22.4
13:45 1019 30.09 848 25.04 12.3 54.1 28 -5.5 22.1
13:50 1019 30.09 848 25.04 13 55.3 28 -5.1 22.8
13:55 1019 30.09 848 25.04 12.8 55 27 -5.7 21.8
14:00 1019 30.09 848 25.04 12.9 55.1 27 -5.9 21.4
14:05 1019 30.09 848 25.04 12.9 55.3 28 -5.3 22.4
14:10 1018 30.06 848 25.04 13 55.4 27 -5.4 22.4
14:15 1018 30.06 848 25.04 12.5 54.4 26 -6.3 20.7
14:20 1018 30.06 848 25.04 12.8 55 26 -6 21.2
14:25 1018 30.06 847 25.01 12.8 55 29 -4.9 23.2
14:30 1018 30.06 847 25.01 12.9 55.1 27 -5.4 22.3
14:35 1018 30.06 847 25.01 13.1 55.6 28 -4.8 23.3
14:40 1018 30.06 847 25.01 13.1 55.5 28 -5.1 22.8
14:45 1018 30.06 847 25.01 12.9 55.1 27 -5.8 21.5
14:50 1018 30.06 847 25.01 12.7 54.8 28 -5.5 22.1
14:55 1018 30.06 847 25.01 12.5 54.4 29 -5.2 22.6
15:00 1018 30.06 847 25.01 12.7 54.9 29 -4.7 23.6
15:05 1018 30.06 847 25.01 12.9 55.2 29 -4.5 23.9
15:10 1017 30.03 847 25.01 12.7 54.9 29 -4.9 23.1
15:15 1017 30.03 847 25.01 12.8 55 29 -4.6 23.8
15:20 1017 30.03 847 25.01 13.2 55.7 30 -4.1 24.7
15:25 1017 30.03 846 24.98 12.9 55.2 31 -3.9 25
15:30 1017 30.03 846 24.98 12.7 54.8 31 -4.1 24.7
15:35 1017 30.03 846 24.98 12.3 54.1 32 -3.9 25.1
15:40 1017 30.03 846 24.98 11.4 52.5 33 -4.2 24.4
15:45 1017 30.03 846 24.98 11.5 52.7 32 -4.4 24.1
15:50 1017 30.03 846 24.98 11.8 53.2 31 -4.6 23.7
15:55 1017 30.03 846 24.98 11.9 53.4 30 -4.9 23.2
16:00 1017 30.03 846 24.98 11.8 53.2 30 -5.1 22.8
16:05 1017 30.03 846 24.98 12.1 53.9 30 -4.7 23.5
16:10 1017 30.03 846 24.98 13.4 56.1 29 -4.4 24.1
16:15 1017 30.03 846 24.98 12.3 54.2 30 -4.6 23.7
16:20 1017 30.03 846 24.98 11.9 53.5 30 -5.3 22.5
16:25 1017 30.03 846 24.98 11.9 53.3 30 -5.1 22.9
16:30 1017 30.03 846 24.98 11.8 53.3 30 -5.1 22.8
16:35 1017 30.03 846 24.98 11.9 53.4 31 -4.8 23.3
16:40 1017 30.03 846 24.98 11.8 53.2 31 -4.9 23.2
16:45 1017 30.03 846 24.98 12.1 53.9 32 -4.1 24.7
16:50 1017 30.03 846 24.98 12.2 53.9 30 -4.9 23.3
16:55 1017 30.03 846 24.98 11.7 53.1 31 -4.9 23.2
17:00 1017 30.03 846 24.98 12.1 53.8 30 -4.8 23.4
17:05 1017 30.03 846 24.98 12 53.7 31 -4.4 24
17:10 1017 30.03 846 24.98 12.3 54.1 30 -5 23.1
17:15 1017 30.03 846 24.98 12.5 54.4 30 -4.6 23.7
17:20 1017 30.03 846 24.98 12.3 54.2 30 -4.9 23.2
17:25 1017 30.03 846 24.98 11.8 53.2 31 -4.9 23.2
17:30 1017 30.03 846 24.98 11.5 52.7 33 -4.3 24.3
17:35 1017 30.03 846 24.98 11.1 52 33 -4.4 24.1
17:40 1017 30.03 846 24.98 11.2 52.1 34 -4.2 24.5
17:45 1017 30.03 846 24.98 10.9 51.7 34 -4.4 24.1
17:50 1016 30 846 24.98 10.9 51.6 34 -4.5 23.9
17:55 1016 30 846 24.98 10.9 51.7 34 -4.3 24.3
18:00 1016 30 846 24.98 10.8 51.4 34 -4.5 23.9
18:05 1016 30 846 24.98 10.8 51.4 33 -4.6 23.6
18:10 1016 30 846 24.98 10.8 51.5 34 -4.4 24.1
18:15 1016 30 846 24.98 11 51.8 35 -4 24.8
18:20 1016 30 846 24.98 11 51.9 35 -4 24.9
18:25 1016 30 846 24.98 11.1 51.9 33 -4.4 24.1
18:30 1016 30 846 24.98 10.8 51.5 34 -4.2 24.5
18:35 1016 30 846 24.98 10.9 51.7 34 -4.4 24.1
18:40 1016 30 846 24.98 11 51.8 34 -4.4 24.2
18:45 1016 30 846 24.98 10.7 51.3 33 -4.8 23.4
18:50 1016 30 846 24.98 10.6 51 33 -5 22.9
18:55 1016 30 846 24.98 10.6 51.2 35 -4.3 24.2
19:00 1016 30 846 24.98 10.7 51.3 34 -4.6 23.7
19:05 1016 30 846 24.98 10.7 51.3 34 -4.4 24.1
19:10 1016 30 846 24.98 10.7 51.3 34 -4.6 23.8
19:15 1016 30 846 24.98 10.7 51.2 38 -2.9 26.8
19:20 1016 30 846 24.98 9.9 49.9 40 -2.9 26.8
19:25 1016 30 846 24.98 9.6 49.2 42 -2.6 27.3
19:30 1016 30 846 24.98 9.4 49 44 -2.1 28.3
19:35 1016 30 846 24.98 9.1 48.4 46 -1.8 28.7
19:40 1016 30 846 24.98 8.7 47.6 48 -1.8 28.8
19:45 1016 30 846 24.98 8 46.5 50 -1.7 29
19:50 1016 30 846 24.98 8 46.3 48 -2.2 28
19:55 1016 30 846 24.98 8 46.4 49 -2.1 28.2
20:00 1016 30 846 24.98 8 46.3 49 -2 28.3
20:05 1016 30 846 24.98 7.7 45.9 50 -1.9 28.5
20:10 1016 30 846 24.98 7.4 45.2 52 -1.9 28.6
20:15 1017 30.03 846 24.98 7.2 44.9 51 -2.3 27.8
20:20 1017 30.03 846 24.98 7.1 44.8 51 -2.3 27.8
20:25 1017 30.03 846 24.98 7.3 45.1 51 -2.2 28
20:30 1017 30.03 846 24.98 7 44.6 52 -2.2 28
20:35 1017 30.03 846 24.98 6.8 44.3 52 -2.4 27.7
20:40 1017 30.03 846 24.98 6.9 44.5 53 -2 28.4
20:45 1017 30.03 846 24.98 6.8 44.3 53 -2 28.4
20:50 1017 30.03 846 24.98 6.6 43.8 54 -2.1 28.3
20:55 1017 30.03 846 24.98 6.6 43.9 53 -2.2 28.1
21:00 1017 30.03 846 24.98 6.6 43.9 53 -2.3 27.8
21:05 1017 30.03 846 24.98 6.8 44.2 52 -2.3 27.9
21:10 1017 30.03 846 24.98 6.8 44.2 54 -1.9 28.6
21:15 1017 30.03 846 24.98 6.8 44.3 54 -1.8 28.8
21:20 1017 30.03 846 24.98 6.7 44.1 54 -1.9 28.6
21:25 1017 30.03 846 24.98 6.5 43.7 55 -1.9 28.6
21:30 1017 30.03 846 24.98 6.6 43.9 54 -1.9 28.5
21:35 1017 30.03 846 24.98 6.9 44.4 51 -2.5 27.5
21:40 1017 30.03 846 24.98 6.8 44.2 56 -1.5 29.4
21:45 1017 30.03 846 24.98 6.4 43.4 56 -1.8 28.8
21:50 1017 30.03 846 24.98 6 42.9 57 -1.8 28.8
21:55 1017 30.03 846 24.98 6.2 43.2 56 -1.8 28.8
22:00 1017 30.03 847 25.01 6.5 43.7 56 -1.7 28.9
22:05 1017 30.03 847 25.01 6.6 43.8 55 -1.7 28.9
22:10 1017 30.03 847 25.01 6.4 43.5 55 -2 28.4
22:15 1017 30.03 847 25.01 6.2 43.1 57 -1.7 29
22:20 1017 30.03 847 25.01 6 42.8 59 -1.3 29.7
22:25 1017 30.03 847 25.01 5.9 42.6 61 -1 30.1
22:30 1017 30.03 847 25.01 6 42.9 61 -0.9 30.4
22:35 1017 30.03 847 25.01 6.6 43.9 59 -0.8 30.5
22:40 1018 30.06 847 25.01 7.1 44.8 58 -0.5 31.1
22:45 1018 30.06 847 25.01 7.3 45.1 57 -0.7 30.8
22:50 1018 30.06 847 25.01 7.4 45.3 57 -0.6 30.9
22:55 1018 30.06 847 25.01 7.4 45.2 57 -0.5 31.1
23:00 1018 30.06 847 25.01 7.2 44.9 57 -0.8 30.6
23:05 1018 30.06 847 25.01 7 44.7 58 -0.7 30.8
23:10 1018 30.06 847 25.01 7 44.5 57 -0.9 30.4
23:15 1018 30.06 847 25.01 7 44.6 57 -0.9 30.3
23:20 1018 30.06 847 25.01 7.1 44.8 57 -0.9 30.3
23:25 1018 30.06 847 25.01 7.2 45 57 -0.7 30.7
23:30 1018 30.06 847 25.01 7.2 45 57 -0.6 31
23:35 1018 30.06 847 25.01 7.3 45.1 58 -0.3 31.4
23:40 1018 30.06 847 25.01 7 44.6 62 0.3 32.6
23:45 1018 30.06 847 25.01 6.8 44.2 62 0 32.1
23:50 1018 30.06 847 25.01 7.1 44.7 63 0.5 33
23:55 1018 30.06 847 25.01 6.9 44.5 65 0.9 33.6
24:00 1018 30.06 847 25.01 6.5 43.7 64 0.2 32.4